Time;durP1;ratioP1;P1;durP2;ratioP2;P2;SDS_P1;SDS_P2;PMS_P1;PMS_P2;Temp;Humidity;BMP_temperature;BMP_pressure;BME280_temperature;BME280_humidity;BME280_pressure;Samples;Min_cycle;Max_cycle;Signal;HPM_P1;HPM_P2
2023/07/12 00:01:50;;;;;;;3.65;1.30;;;19.50;99.90;;;;;;4211679;28;20040;-85
2023/07/12 00:03:51;;;;;;;4.03;1.27;;;19.50;99.90;;;;;;4213940;28;20051;-85
2023/07/12 00:05:53;;;;;;;2.10;1.33;;;19.50;99.90;;;;;;4215048;28;20500;-85
2023/07/12 00:07:54;;;;;;;3.00;1.75;;;19.40;99.90;;;;;;4230507;28;20508;-85
2023/07/12 00:09:55;;;;;;;2.78;1.73;;;19.40;99.90;;;;;;4213287;28;20044;-85
2023/07/12 00:11:56;;;;;;;3.00;1.38;;;19.40;99.90;;;;;;4214020;28;20087;-84
2023/07/12 00:13:57;;;;;;;3.17;1.50;;;19.40;99.90;;;;;;4225331;28;20048;-84
2023/07/12 00:15:58;;;;;;;3.28;1.40;;;19.40;99.90;;;;;;4236978;28;20130;-86
2023/07/12 00:18:00;;;;;;;3.13;1.50;;;19.40;99.90;;;;;;4221223;28;20063;-85
2023/07/12 00:20:03;;;;;;;2.17;1.38;;;19.40;99.90;;;;;;4221239;28;20804;-85
2023/07/12 00:22:04;;;;;;;4.45;1.33;;;19.30;99.90;;;;;;4237143;28;20047;-85
2023/07/12 00:24:05;;;;;;;3.30;1.40;;;19.30;99.90;;;;;;4219573;28;20048;-85
2023/07/12 00:26:26;;;;;;;3.28;1.30;;;19.30;99.90;;;;;;4221872;28;20044;-86
2023/07/12 00:28:27;;;;;;;3.17;1.52;;;19.20;99.90;;;;;;4237301;28;20036;-85
2023/07/12 00:30:34;;;;;;;3.42;1.58;;;19.20;99.90;;;;;;4212842;28;20048;-86
2023/07/12 00:32:35;;;;;;;4.75;1.50;;;19.20;99.90;;;;;;4237160;28;20052;-85
2023/07/12 00:34:36;;;;;;;3.72;1.25;;;19.20;99.90;;;;;;4236493;28;20527;-85
2023/07/12 00:36:37;;;;;;;3.88;1.27;;;19.20;99.90;;;;;;4219971;28;20048;-86
2023/07/12 00:38:40;;;;;;;5.22;1.45;;;19.10;99.90;;;;;;4219403;28;20040;-86
2023/07/12 00:40:58;;;;;;;2.67;1.45;;;19.10;99.90;;;;;;4236459;28;20088;-85
2023/07/12 00:43:11;;;;;;;5.43;1.50;;;19.10;99.90;;;;;;4221272;28;20051;-85
2023/07/12 00:45:12;;;;;;;1.40;1.00;;;19.10;99.90;;;;;;4236595;28;20047;-85
2023/07/12 00:47:14;;;;;;;3.50;2.00;;;19.10;99.90;;;;;;4234514;28;20044;-85
2023/07/12 00:49:15;;;;;;;4.85;1.90;;;19.00;99.90;;;;;;4213325;28;20516;-85
2023/07/12 00:51:34;;;;;;;2.75;1.48;;;19.00;99.90;;;;;;4235674;28;20055;-85
2023/07/12 00:53:34;;;;;;;2.42;1.40;;;19.00;99.90;;;;;;4202017;28;20067;-86
2023/07/12 00:55:57;;;;;;;3.67;1.35;;;18.90;99.90;;;;;;4202066;28;20045;-85
2023/07/12 00:57:58;;;;;;;5.15;1.23;;;18.90;99.90;;;;;;4219685;28;20161;-85
2023/07/12 01:00:10;;;;;;;3.88;1.60;;;18.90;99.90;;;;;;4201926;28;20052;-86
2023/07/12 01:02:14;;;;;;;4.93;2.10;;;18.90;99.90;;;;;;4218969;28;20073;-85
2023/07/12 01:04:21;;;;;;;2.65;1.40;;;18.90;99.90;;;;;;4235782;28;20112;-85
2023/07/12 01:06:24;;;;;;;4.70;1.60;;;18.90;99.90;;;;;;4237235;28;20096;-85
2023/07/12 01:08:26;;;;;;;2.88;1.60;;;18.90;99.90;;;;;;4231002;28;20094;-85
2023/07/12 01:10:27;;;;;;;3.42;1.52;;;18.90;99.90;;;;;;4219410;28;20101;-85
2023/07/12 01:12:28;;;;;;;4.28;1.70;;;18.90;99.90;;;;;;4219911;28;20059;-85
2023/07/12 01:14:28;;;;;;;3.53;1.67;;;18.90;99.90;;;;;;4219150;28;20044;-86
2023/07/12 01:16:30;;;;;;;3.40;1.80;;;18.90;99.90;;;;;;4219785;28;20093;-86
2023/07/12 01:18:30;;;;;;;4.43;1.73;;;18.90;99.90;;;;;;4235915;28;20055;-86
2023/07/12 01:20:38;;;;;;;5.88;1.42;;;18.80;99.90;;;;;;4219691;28;20048;-86
2023/07/12 01:22:39;;;;;;;3.22;2.10;;;18.80;99.90;;;;;;4220239;28;20054;-86
2023/07/12 01:24:39;;;;;;;6.03;1.90;;;18.80;99.90;;;;;;4221195;28;20182;-86
2023/07/12 01:26:44;;;;;;;4.97;1.67;;;18.80;99.90;;;;;;4212032;28;20041;-87
2023/07/12 01:28:47;;;;;;;8.70;1.67;;;18.70;99.90;;;;;;4218790;28;20433;-86
2023/07/12 01:30:48;;;;;;;6.05;1.77;;;18.70;99.90;;;;;;4234079;28;20047;-86
2023/07/12 01:32:52;;;;;;;5.32;1.67;;;18.70;99.90;;;;;;4200590;28;20055;-87
2023/07/12 01:34:53;;;;;;;3.55;1.50;;;18.70;99.90;;;;;;4217420;28;20051;-84
2023/07/12 01:36:54;;;;;;;3.35;1.67;;;18.60;99.90;;;;;;4200614;28;20052;-86
2023/07/12 01:38:57;;;;;;;5.30;1.83;;;18.60;99.90;;;;;;4218505;28;20197;-86
2023/07/12 01:40:59;;;;;;;3.58;1.65;;;18.60;99.90;;;;;;4218375;28;20055;-85
2023/07/12 01:43:00;;;;;;;6.55;1.50;;;18.60;99.90;;;;;;4195059;28;20056;-86
2023/07/12 01:45:01;;;;;;;6.07;1.92;;;18.50;99.90;;;;;;4227965;27;20098;-86
2023/07/12 01:47:02;;;;;;;9.27;2.33;;;18.50;99.90;;;;;;4216681;28;20130;-86
2023/07/12 01:49:03;;;;;;;8.88;3.05;;;18.50;99.90;;;;;;4235546;28;20122;-86
2023/07/12 01:51:05;;;;;;;3.65;1.65;;;18.50;99.90;;;;;;4235477;27;20051;-86
2023/07/12 01:53:05;;;;;;;5.60;2.00;;;18.50;99.90;;;;;;4235038;28;20043;-85
2023/07/12 01:55:06;;;;;;;5.40;2.22;;;18.40;99.90;;;;;;4234381;28;20101;-86
2023/07/12 01:57:08;;;;;;;7.32;2.28;;;18.40;99.90;;;;;;4233406;28;20055;-86
2023/07/12 01:59:09;;;;;;;6.65;1.80;;;18.40;99.90;;;;;;4234430;28;20376;-86
2023/07/12 02:01:11;;;;;;;3.65;1.55;;;18.40;99.90;;;;;;4209619;28;20040;-86
2023/07/12 02:03:15;;;;;;;3.95;1.52;;;18.40;99.90;;;;;;4218393;28;20109;-86
2023/07/12 02:05:18;;;;;;;4.05;1.95;;;18.30;99.90;;;;;;4201296;28;20040;-86
2023/07/12 02:07:18;;;;;;;3.25;1.63;;;18.30;99.90;;;;;;4201802;28;20411;-86
2023/07/12 02:09:19;;;;;;;3.63;1.80;;;18.30;99.90;;;;;;4200439;28;20123;-86
2023/07/12 02:11:20;;;;;;;4.30;1.95;;;18.30;99.90;;;;;;4200197;28;20040;-86
2023/07/12 02:13:22;;;;;;;7.97;2.40;;;18.30;99.90;;;;;;4200348;28;20044;-86
2023/07/12 02:15:23;;;;;;;5.05;2.55;;;18.30;99.90;;;;;;4182681;28;20037;-86
2023/07/12 02:17:24;;;;;;;4.93;2.08;;;18.30;99.90;;;;;;4199209;28;20042;-86
2023/07/12 02:19:25;;;;;;;4.00;2.08;;;18.20;99.90;;;;;;4199222;28;20049;-86
2023/07/12 02:21:25;;;;;;;6.10;1.88;;;18.20;99.90;;;;;;4213868;28;20036;-85
2023/07/12 02:23:26;;;;;;;5.20;2.30;;;18.20;99.90;;;;;;4216426;28;20040;-85
2023/07/12 02:25:27;;;;;;;8.93;2.65;;;18.20;99.90;;;;;;4199059;28;20052;-86
2023/07/12 02:27:28;;;;;;;11.93;3.10;;;17.80;99.90;;;;;;4217176;28;20198;-86
2023/07/12 02:29:29;;;;;;;8.30;2.65;;;18.10;99.90;;;;;;4232684;28;20127;-85
2023/07/12 02:31:32;;;;;;;5.05;2.10;;;18.10;99.90;;;;;;4217051;28;20109;-85
2023/07/12 02:33:32;;;;;;;5.90;2.50;;;18.10;99.90;;;;;;4198956;28;20138;-86
2023/07/12 02:35:33;;;;;;;4.68;2.30;;;18.00;99.90;;;;;;4232917;28;20101;-86
2023/07/12 02:37:34;;;;;;;5.53;3.03;;;18.00;99.90;;;;;;4215873;28;20042;-86
2023/07/12 02:39:35;;;;;;;11.00;3.13;;;18.00;99.90;;;;;;4218473;28;20511;-86
2023/07/12 02:41:36;;;;;;;7.75;2.17;;;18.00;99.90;;;;;;4216538;28;20044;-85
2023/07/12 02:43:38;;;;;;;4.43;2.25;;;17.90;99.90;;;;;;4216050;28;20055;-86
2023/07/12 02:45:38;;;;;;;9.25;2.40;;;17.90;99.90;;;;;;4234397;27;20054;-85
2023/07/12 02:47:41;;;;;;;9.57;3.13;;;17.90;99.90;;;;;;4250443;27;20546;-85
2023/07/12 02:49:42;;;;;;;6.05;2.60;;;17.80;99.90;;;;;;4233519;28;20031;-85
2023/07/12 02:51:43;;;;;;;6.32;2.45;;;17.80;99.90;;;;;;4234868;28;20076;-85
2023/07/12 02:53:45;;;;;;;10.57;2.45;;;17.80;99.90;;;;;;4215373;28;20153;-85
2023/07/12 02:55:50;;;;;;;9.40;3.30;;;17.80;99.90;;;;;;4234503;28;20031;-85
2023/07/12 02:57:50;;;;;;;9.63;3.13;;;17.80;99.90;;;;;;4213095;28;20083;-85
2023/07/12 02:59:51;;;;;;;12.80;2.97;;;17.90;99.90;;;;;;4215497;28;20488;-85
2023/07/12 03:01:53;;;;;;;10.63;3.30;;;17.80;99.90;;;;;;4216006;28;20036;-86
2023/07/12 03:03:54;;;;;;;9.98;3.72;;;17.70;99.90;;;;;;4231648;28;20079;-86
2023/07/12 03:05:54;;;;;;;10.75;3.42;;;17.70;99.90;;;;;;4217852;28;20480;-85
2023/07/12 03:07:55;;;;;;;9.07;3.03;;;17.70;99.90;;;;;;4216600;28;20098;-85
2023/07/12 03:09:56;;;;;;;9.45;3.15;;;17.60;99.90;;;;;;4199812;28;20029;-85
2023/07/12 03:11:57;;;;;;;7.32;2.97;;;17.60;99.90;;;;;;4216886;28;20133;-85
2023/07/12 03:13:58;;;;;;;8.82;3.17;;;17.60;99.90;;;;;;4210911;28;20043;-86
2023/07/12 03:16:04;;;;;;;9.32;2.75;;;17.50;99.90;;;;;;4216946;28;20105;-86
2023/07/12 03:18:05;;;;;;;7.72;2.83;;;17.50;99.90;;;;;;4215278;28;20489;-86
2023/07/12 03:20:06;;;;;;;7.78;3.28;;;17.50;99.90;;;;;;4233666;28;20075;-87
2023/07/12 03:22:07;;;;;;;12.10;2.72;;;17.50;99.90;;;;;;4217142;28;20094;-87
2023/07/12 03:24:09;;;;;;;10.40;2.92;;;17.40;99.90;;;;;;4217501;28;20052;-87
2023/07/12 03:26:10;;;;;;;8.18;2.60;;;17.50;99.90;;;;;;4233036;28;20060;-87
2023/07/12 03:28:11;;;;;;;12.43;3.55;;;17.50;99.90;;;;;;4216422;28;20085;-87
2023/07/12 03:30:12;;;;;;;10.63;3.05;;;17.50;99.90;;;;;;4216748;28;20036;-87
2023/07/12 03:32:12;;;;;;;7.32;2.50;;;17.50;99.90;;;;;;4217984;28;20051;-87
2023/07/12 03:34:13;;;;;;;8.65;3.22;;;17.50;99.90;;;;;;4216127;28;20480;-87
2023/07/12 03:36:15;;;;;;;15.93;4.18;;;17.50;99.90;;;;;;4215207;28;20047;-87
2023/07/12 03:38:28;;;;;;;12.18;3.30;;;17.40;99.90;;;;;;4199409;28;20051;-88
2023/07/12 03:40:35;;;;;;;7.82;3.30;;;17.40;99.90;;;;;;4216529;28;20110;-88
2023/07/12 03:42:40;;;;;;;15.48;2.78;;;17.40;99.90;;;;;;4217091;28;20048;-88
2023/07/12 03:47:56;;;;;;;8.15;2.40;;;17.40;99.90;;;;;;4205031;28;20044;-87
2023/07/12 03:50:17;;;;;;;9.57;2.78;;;17.40;99.90;;;;;;4190458;28;20053;-87
2023/07/12 03:52:52;;;;;;;12.70;2.55;;;17.40;99.90;;;;;;4208385;28;20044;-87
2023/07/12 03:55:33;;;;;;;9.68;2.80;;;17.40;99.90;;;;;;4222790;28;20085;-87
2023/07/12 03:58:07;;;;;;;16.30;2.53;;;17.40;99.90;;;;;;4174971;28;20143;-87
2023/07/12 04:00:12;;;;;;;15.02;3.75;;;17.40;99.90;;;;;;4172610;28;20087;-87
2023/07/12 04:02:13;;;;;;;15.30;3.28;;;17.40;99.90;;;;;;4174859;28;20065;-87
2023/07/12 04:04:14;;;;;;;16.05;2.70;;;17.40;99.90;;;;;;4176008;28;20042;-87
2023/07/12 04:06:15;;;;;;;12.07;3.13;;;17.40;99.90;;;;;;4178581;28;20071;-86
2023/07/12 04:08:19;;;;;;;15.05;2.78;;;17.40;99.90;;;;;;4161409;28;20081;-86
2023/07/12 04:10:20;;;;;;;11.23;3.15;;;17.40;99.90;;;;;;4192892;28;20049;-85
2023/07/12 04:12:21;;;;;;;15.52;4.07;;;17.40;99.90;;;;;;4195521;28;20041;-85
2023/07/12 04:14:23;;;;;;;9.02;3.08;;;17.40;99.90;;;;;;4195202;28;20112;-86
2023/07/12 04:16:27;;;;;;;17.65;3.47;;;17.20;99.90;;;;;;4193718;28;20044;-86
2023/07/12 04:18:29;;;;;;;9.25;2.90;;;17.30;99.90;;;;;;4199252;28;20037;-86
2023/07/12 04:20:30;;;;;;;11.80;2.63;;;17.30;99.90;;;;;;4193563;28;20045;-85
2023/07/12 04:22:31;;;;;;;12.05;3.20;;;17.40;99.90;;;;;;4192769;28;20048;-86
2023/07/12 04:24:32;;;;;;;9.15;2.80;;;17.40;99.90;;;;;;4169889;28;20046;-86
2023/07/12 04:26:33;;;;;;;11.30;2.78;;;17.40;99.90;;;;;;4168193;28;20041;-86
2023/07/12 04:28:39;;;;;;;13.50;3.63;;;17.40;99.90;;;;;;4166312;28;20373;-86
2023/07/12 04:30:40;;;;;;;9.35;3.00;;;17.40;99.90;;;;;;4149175;28;20048;-86
2023/07/12 04:32:43;;;;;;;13.68;3.47;;;17.40;99.90;;;;;;4167491;28;20394;-86
2023/07/12 04:34:46;;;;;;;12.35;3.13;;;17.40;99.90;;;;;;4165067;28;20486;-86
2023/07/12 04:36:47;;;;;;;11.60;3.15;;;17.40;99.90;;;;;;4167054;28;20498;-85
2023/07/12 04:38:48;;;;;;;10.43;3.65;;;17.40;99.90;;;;;;4166257;28;20142;-86
2023/07/12 04:40:53;;;;;;;12.75;3.10;;;17.10;99.90;;;;;;4166219;28;20123;-86
2023/07/12 04:42:54;;;;;;;12.25;3.33;;;17.40;99.90;;;;;;4181946;28;20033;-86
2023/07/12 04:44:55;;;;;;;14.50;3.17;;;17.40;99.90;;;;;;4182556;28;20481;-86
2023/07/12 04:46:56;;;;;;;9.77;3.22;;;17.40;99.90;;;;;;4182378;28;20425;-86
2023/07/12 04:48:58;;;;;;;13.95;3.15;;;17.40;99.90;;;;;;4167753;28;20077;-86
2023/07/12 04:51:05;;;;;;;18.25;4.15;;;17.40;99.90;;;;;;4185081;28;20037;-86
2023/07/12 04:53:06;;;;;;;10.68;3.55;;;17.40;99.90;;;;;;4184523;28;20052;-85
2023/07/12 04:55:27;;;;;;;13.82;3.22;;;17.40;99.90;;;;;;4165143;28;20490;-86
2023/07/12 04:57:29;;;;;;;13.15;2.78;;;17.40;99.90;;;;;;4218492;28;20053;-86
2023/07/12 04:59:30;;;;;;;10.82;2.78;;;17.30;99.90;;;;;;4193288;28;20515;-85
2023/07/12 05:01:31;;;;;;;15.40;4.50;;;17.30;99.90;;;;;;4226711;28;20047;-87
2023/07/12 05:03:36;;;;;;;13.55;3.00;;;17.30;99.90;;;;;;4189269;28;20037;-88
2023/07/12 05:05:45;;;;;;;9.93;3.10;;;17.30;99.90;;;;;;4206187;28;20040;-87
2023/07/12 05:07:47;;;;;;;18.30;3.45;;;17.30;99.90;;;;;;4202621;28;20036;-86
2023/07/12 05:09:48;;;;;;;14.10;4.22;;;17.30;99.90;;;;;;4202356;28;20045;-87
2023/07/12 05:11:50;;;;;;;10.95;3.70;;;17.30;99.90;;;;;;4202300;28;20435;-87
2023/07/12 05:13:51;;;;;;;11.15;3.25;;;17.40;99.90;;;;;;4218410;28;20085;-87
2023/07/12 05:15:53;;;;;;;16.75;3.78;;;17.30;99.90;;;;;;4200602;28;20133;-86
2023/07/12 05:17:54;;;;;;;14.10;3.92;;;17.40;99.90;;;;;;4203081;28;20052;-86
2023/07/12 05:19:56;;;;;;;10.65;3.40;;;17.40;99.90;;;;;;4208451;28;20066;-87
2023/07/12 05:21:57;;;;;;;13.73;3.47;;;17.40;99.90;;;;;;4201227;28;20045;-86
2023/07/12 05:23:58;;;;;;;17.30;3.85;;;17.50;99.90;;;;;;4219215;28;20515;-86
2023/07/12 05:25:59;;;;;;;10.20;3.25;;;17.50;99.90;;;;;;4216911;28;20044;-86
2023/07/12 05:28:02;;;;;;;14.32;3.83;;;17.50;99.90;;;;;;4220821;28;20024;-85
2023/07/12 05:30:03;;;;;;;8.23;3.60;;;17.50;99.90;;;;;;4200504;28;20084;-86
2023/07/12 05:32:05;;;;;;;13.05;3.03;;;17.60;99.90;;;;;;4234895;28;20431;-86
2023/07/12 05:34:12;;;;;;;15.40;4.32;;;17.60;99.90;;;;;;4200293;28;20053;-87
2023/07/12 05:36:14;;;;;;;13.02;3.85;;;17.60;99.90;;;;;;4218478;28;20075;-86
2023/07/12 05:38:16;;;;;;;11.73;3.22;;;17.70;99.90;;;;;;4218277;28;20044;-87
2023/07/12 05:40:17;;;;;;;13.05;3.67;;;17.70;99.90;;;;;;4217829;28;20527;-86
2023/07/12 05:42:19;;;;;;;14.05;3.47;;;17.80;99.90;;;;;;4217918;28;20060;-87
2023/07/12 05:44:19;;;;;;;18.70;3.17;;;17.70;99.90;;;;;;4218905;28;20377;-86
2023/07/12 05:46:21;;;;;;;14.15;3.67;;;17.90;99.90;;;;;;4236114;28;20082;-86
2023/07/12 05:48:23;;;;;;;14.73;4.45;;;17.90;99.90;;;;;;4234864;28;20407;-86
2023/07/12 05:50:26;;;;;;;12.68;3.70;;;18.00;99.90;;;;;;4219484;28;20057;-87
2023/07/12 05:52:27;;;;;;;15.73;3.75;;;18.00;99.90;;;;;;4219023;28;20495;-85
2023/07/12 05:54:30;;;;;;;9.57;3.30;;;18.00;99.90;;;;;;4217691;28;20080;-87
2023/07/12 05:56:34;;;;;;;13.43;3.60;;;18.10;99.90;;;;;;4231966;28;20396;-87
2023/07/12 05:58:42;;;;;;;10.80;3.13;;;18.10;99.90;;;;;;4218726;28;20094;-87
2023/07/12 06:00:44;;;;;;;10.18;2.90;;;18.10;99.90;;;;;;4217867;28;20043;-90
2023/07/12 06:02:50;;;;;;;12.35;3.92;;;18.10;99.90;;;;;;4225516;28;20049;-87
2023/07/12 06:04:51;;;;;;;10.07;3.38;;;18.10;99.90;;;;;;4220464;28;20036;-87
2023/07/12 06:06:53;;;;;;;13.23;3.42;;;18.00;99.90;;;;;;4204520;28;20499;-86
2023/07/12 06:09:00;;;;;;;12.32;3.55;;;17.90;99.90;;;;;;4185646;28;20056;-87
2023/07/12 06:11:04;;;;;;;19.25;4.10;;;17.90;99.90;;;;;;4220650;28;20602;-87
2023/07/12 06:13:09;;;;;;;15.52;5.25;;;17.90;99.90;;;;;;4218249;28;20055;-87
2023/07/12 06:15:12;;;;;;;11.50;3.17;;;17.80;99.90;;;;;;4219172;28;20051;-87
2023/07/12 06:17:14;;;;;;;15.75;3.30;;;17.80;99.90;;;;;;4204543;28;20060;-87
2023/07/12 06:19:16;;;;;;;15.63;3.25;;;17.80;99.90;;;;;;4220434;28;20040;-87
2023/07/12 06:21:18;;;;;;;11.00;3.10;;;17.90;99.90;;;;;;4237100;28;20047;-87
2023/07/12 06:23:18;;;;;;;13.02;3.25;;;18.00;99.90;;;;;;4220497;28;20553;-87
2023/07/12 06:25:20;;;;;;;11.43;3.88;;;18.00;99.90;;;;;;4221297;28;20157;-86
2023/07/12 06:27:22;;;;;;;15.27;3.80;;;18.00;99.90;;;;;;4219192;28;20048;-86
2023/07/12 06:29:24;;;;;;;11.50;3.95;;;18.10;99.90;;;;;;4218414;28;20043;-85
2023/07/12 06:31:25;;;;;;;17.60;4.25;;;18.20;99.90;;;;;;4237215;28;20141;-87
2023/07/12 06:33:33;;;;;;;15.70;3.67;;;18.20;99.90;;;;;;4201406;28;20146;-87
2023/07/12 06:35:37;;;;;;;20.10;3.97;;;18.80;99.90;;;;;;4218281;28;20052;-86
2023/07/12 06:37:39;;;;;;;15.95;3.38;;;18.60;99.90;;;;;;4220162;28;20039;-88
2023/07/12 06:39:40;;;;;;;10.10;3.45;;;18.80;99.90;;;;;;4202397;28;20091;-88
2023/07/12 06:41:41;;;;;;;13.23;3.28;;;18.90;99.90;;;;;;4202500;28;20045;-85
2023/07/12 06:43:41;;;;;;;11.15;3.45;;;19.00;99.90;;;;;;4199724;28;20394;-85
2023/07/12 06:45:45;;;;;;;13.82;3.95;;;19.00;99.90;;;;;;4199669;28;20519;-84
2023/07/12 06:47:46;;;;;;;13.43;3.53;;;18.90;99.90;;;;;;4199606;28;20508;-85
2023/07/12 06:49:47;;;;;;;13.15;2.90;;;18.90;99.90;;;;;;4203308;28;20043;-86
2023/07/12 06:51:48;;;;;;;13.55;3.72;;;18.90;99.90;;;;;;4198737;28;20044;-85
2023/07/12 06:53:49;;;;;;;10.30;3.25;;;19.00;99.90;;;;;;4198514;28;20063;-85
2023/07/12 06:55:50;;;;;;;17.25;3.92;;;19.00;99.90;;;;;;4200190;28;20484;-84
2023/07/12 06:57:51;;;;;;;7.68;3.83;;;19.10;99.90;;;;;;4199720;28;20044;-84
2023/07/12 06:59:52;;;;;;;13.55;3.67;;;19.20;99.90;;;;;;4202349;28;20518;-84
2023/07/12 07:01:53;;;;;;;14.95;3.33;;;19.30;99.90;;;;;;4210882;28;20040;-86
2023/07/12 07:03:53;;;;;;;13.52;3.13;;;19.20;99.90;;;;;;4216045;28;20052;-85
2023/07/12 07:05:54;;;;;;;13.98;3.40;;;19.30;99.90;;;;;;4215102;28;20436;-85
2023/07/12 07:07:55;;;;;;;15.82;3.17;;;19.40;99.90;;;;;;4227160;28;20122;-86
2023/07/12 07:09:56;;;;;;;14.88;3.53;;;19.50;99.90;;;;;;4216172;28;20048;-85
2023/07/12 07:11:59;;;;;;;12.02;3.70;;;19.60;99.90;;;;;;4215462;28;20063;-86
2023/07/12 07:14:01;;;;;;;12.25;3.33;;;19.60;99.90;;;;;;4233901;28;20108;-86
2023/07/12 07:16:03;;;;;;;12.15;2.95;;;19.80;99.90;;;;;;4232639;28;20043;-87
2023/07/12 07:18:04;;;;;;;8.20;2.60;;;19.80;99.90;;;;;;4210795;28;20059;-86
2023/07/12 07:20:05;;;;;;;8.68;2.90;;;19.90;99.90;;;;;;4218207;28;20052;-86
2023/07/12 07:22:07;;;;;;;6.97;3.05;;;19.90;99.90;;;;;;4231769;28;20039;-86
2023/07/12 07:24:09;;;;;;;9.23;3.25;;;19.80;99.90;;;;;;4207559;28;20048;-86
2023/07/12 07:26:11;;;;;;;15.98;3.47;;;19.70;99.90;;;;;;4203429;28;20405;-85
2023/07/12 07:28:12;;;;;;;10.63;3.45;;;19.60;99.90;;;;;;4181302;28;20045;-86
2023/07/12 07:30:17;;;;;;;11.57;3.25;;;19.60;99.90;;;;;;4198822;28;20119;-86
2023/07/12 07:32:18;;;;;;;11.70;2.88;;;19.80;99.90;;;;;;4206466;28;20076;-86
2023/07/12 07:34:19;;;;;;;9.50;2.97;;;20.00;99.90;;;;;;4206845;28;20036;-86
2023/07/12 07:36:21;;;;;;;12.50;2.65;;;20.00;99.90;;;;;;4215067;28;20150;-86
2023/07/12 07:38:26;;;;;;;7.90;2.28;;;20.10;99.90;;;;;;4220137;28;20050;-86
2023/07/12 07:40:27;;;;;;;12.75;2.33;;;20.10;99.90;;;;;;4199607;28;20053;-86
2023/07/12 07:42:30;;;;;;;12.60;2.17;;;20.00;99.90;;;;;;4198631;28;20441;-86
2023/07/12 07:44:31;;;;;;;10.55;2.95;;;19.90;99.90;;;;;;4201286;28;20119;-87
2023/07/12 07:46:33;;;;;;;12.77;2.67;;;19.90;99.90;;;;;;4205740;28;20048;-87
2023/07/12 07:48:34;;;;;;;9.95;2.58;;;19.80;99.90;;;;;;4216797;28;20046;-87
2023/07/12 07:50:34;;;;;;;16.27;2.60;;;19.80;99.90;;;;;;4204585;28;20497;-87
2023/07/12 07:52:37;;;;;;;16.02;2.58;;;19.80;99.90;;;;;;4211338;28;20048;-86
2023/07/12 07:54:40;;;;;;;12.45;2.47;;;19.60;99.90;;;;;;4223295;28;20040;-87
2023/07/12 07:56:41;;;;;;;9.65;2.75;;;19.90;99.90;;;;;;4220285;28;20603;-87
2023/07/12 07:58:42;;;;;;;13.05;3.47;;;20.00;99.90;;;;;;4202853;28;20048;-87
2023/07/12 08:00:44;;;;;;;14.75;3.00;;;20.10;99.90;;;;;;4219121;28;20115;-87
2023/07/12 08:02:46;;;;;;;7.10;2.17;;;20.00;99.90;;;;;;4203526;28;20044;-88
2023/07/12 08:04:50;;;;;;;10.30;1.88;;;19.90;99.90;;;;;;4203362;28;20047;-88
2023/07/12 08:06:53;;;;;;;13.65;2.30;;;19.50;99.90;;;;;;4200056;28;20826;-87
2023/07/12 08:08:53;;;;;;;15.55;2.60;;;19.70;99.90;;;;;;4217596;28;20071;-86
2023/07/12 08:11:05;;;;;;;12.27;2.83;;;19.60;99.90;;;;;;4200236;28;20126;-87
2023/07/12 08:13:07;;;;;;;10.15;2.40;;;19.60;99.90;;;;;;4218684;28;20056;-85
2023/07/12 08:15:09;;;;;;;9.90;2.80;;;19.40;99.90;;;;;;4218396;28;20087;-86
2023/07/12 08:17:12;;;;;;;10.98;2.30;;;19.30;99.90;;;;;;4217876;28;20048;-87
2023/07/12 08:19:15;;;;;;;8.63;2.35;;;19.20;99.90;;;;;;4218298;28;20040;-86
2023/07/12 08:21:17;;;;;;;12.48;2.70;;;19.10;99.90;;;;;;4203376;28;20128;-85
2023/07/12 08:23:18;;;;;;;12.52;2.67;;;19.10;99.90;;;;;;4220522;28;20124;-87
2023/07/12 08:25:19;;;;;;;18.42;3.47;;;19.00;99.90;;;;;;4217582;28;20040;-86
2023/07/12 08:27:19;;;;;;;13.45;2.83;;;19.00;99.90;;;;;;4222231;28;20511;-87
2023/07/12 08:29:21;;;;;;;13.60;3.58;;;18.90;99.90;;;;;;4208139;28;20047;-88
2023/07/12 08:31:24;;;;;;;7.43;2.90;;;18.80;99.90;;;;;;4234479;28;20083;-87
2023/07/12 08:33:26;;;;;;;11.88;2.28;;;18.80;99.90;;;;;;4207162;28;20079;-88
2023/07/12 08:35:26;;;;;;;7.63;3.08;;;18.70;99.90;;;;;;4217308;28;20044;-87
2023/07/12 08:37:28;;;;;;;5.95;1.75;;;18.60;99.90;;;;;;4217944;28;20040;-87
2023/07/12 08:39:30;;;;;;;6.63;2.35;;;18.50;99.90;;;;;;4214768;28;20115;-87
2023/07/12 08:41:37;;;;;;;5.70;1.73;;;18.50;99.90;;;;;;4201450;28;20536;-87
2023/07/12 08:43:38;;;;;;;11.48;1.50;;;18.50;99.90;;;;;;4202549;28;20048;-87
2023/07/12 08:45:43;;;;;;;6.45;1.83;;;18.60;99.90;;;;;;4200898;28;20051;-87
2023/07/12 08:47:48;;;;;;;3.67;1.90;;;18.90;99.90;;;;;;4202215;28;20129;-89
2023/07/12 08:49:49;;;;;;;5.82;2.10;;;19.10;99.90;;;;;;4201490;28;20110;-89
2023/07/12 08:51:52;;;;;;;5.93;2.10;;;19.10;99.90;;;;;;4203182;28;20044;-88
2023/07/12 08:53:53;;;;;;;7.65;1.55;;;19.00;99.90;;;;;;4204906;28;20127;-88
2023/07/12 08:55:56;;;;;;;7.22;1.90;;;19.00;99.90;;;;;;4205842;28;20059;-89
2023/07/12 08:58:18;;;;;;;9.27;1.95;;;19.00;99.90;;;;;;4226392;28;20103;-89
2023/07/12 09:00:23;;;;;;;9.27;2.83;;;19.00;99.90;;;;;;4208022;28;20113;-88
2023/07/12 09:02:25;;;;;;;12.80;3.22;;;19.10;99.90;;;;;;4225906;27;20119;-87
2023/07/12 09:04:31;;;;;;;10.45;2.10;;;19.10;99.90;;;;;;4237869;28;20043;-87
2023/07/12 09:06:32;;;;;;;8.32;3.08;;;19.00;99.90;;;;;;4224452;28;20071;-86
2023/07/12 09:08:39;;;;;;;10.52;2.47;;;19.10;99.90;;;;;;4207029;28;20041;-87
2023/07/12 09:10:50;;;;;;;7.90;2.45;;;19.20;99.90;;;;;;4238161;28;20400;-87
2023/07/12 09:12:51;;;;;;;6.32;2.13;;;19.40;99.90;;;;;;4218972;28;20043;-87
2023/07/12 09:15:01;;;;;;;8.75;2.50;;;19.50;99.90;;;;;;4221403;28;20066;-87
2023/07/12 09:17:23;;;;;;;8.68;2.10;;;19.60;99.90;;;;;;4235214;28;20107;-87
2023/07/12 09:19:30;;;;;;;6.40;2.20;;;19.60;99.90;;;;;;4212803;28;20044;-87
2023/07/12 09:21:37;;;;;;;10.07;3.13;;;19.90;99.90;;;;;;4202542;28;20040;-87
2023/07/12 09:23:40;;;;;;;6.63;2.28;;;20.30;99.90;;;;;;4219118;28;20052;-88
2023/07/12 09:25:52;;;;;;;5.47;2.22;;;20.60;99.90;;;;;;4206581;28;20029;-86
2023/07/12 09:27:54;;;;;;;5.50;1.70;;;20.90;99.90;;;;;;4187841;28;20131;-87
2023/07/12 09:30:04;;;;;;;7.82;2.00;;;21.20;99.90;;;;;;4188231;28;20569;-86
2023/07/12 09:32:15;;;;;;;9.85;1.75;;;21.20;99.90;;;;;;4203621;28;20400;-87
2023/07/12 09:34:36;;;;;;;6.63;2.65;;;21.20;99.90;;;;;;4219004;28;20052;-87
2023/07/12 09:36:39;;;;;;;5.43;1.70;;;20.70;99.90;;;;;;4195547;28;20056;-87
2023/07/12 09:38:40;;;;;;;5.90;1.35;;;20.60;99.90;;;;;;4226139;28;20115;-87
2023/07/12 09:40:48;;;;;;;8.45;1.73;;;20.50;99.90;;;;;;4210490;28;20526;-87
2023/07/12 09:42:55;;;;;;;4.57;1.27;;;20.40;99.90;;;;;;4224232;28;20044;-87
2023/07/12 09:45:04;;;;;;;8.90;1.67;;;20.30;99.90;;;;;;4209823;28;20055;-89
2023/07/12 09:48:01;;;;;;;6.55;1.42;;;20.30;99.90;;;;;;4207997;28;20040;-89
2023/07/12 09:50:26;;;;;;;6.60;1.80;;;20.50;99.90;;;;;;4220742;28;20099;-89
2023/07/12 09:53:01;;;;;;;5.03;1.75;;;20.50;99.90;;;;;;4207125;28;20052;-88
2023/07/12 09:55:24;;;;;;;7.90;1.73;;;20.80;99.90;;;;;;4191558;28;20053;-89
2023/07/12 09:57:45;;;;;;;3.30;1.40;;;21.30;99.90;;;;;;4215880;28;20052;-87
2023/07/12 09:59:50;;;;;;;4.72;1.65;;;21.80;99.90;;;;;;4205328;28;20086;-86
2023/07/12 10:02:17;;;;;;;6.18;1.55;;;21.80;99.90;;;;;;4212150;28;20564;-88
2023/07/12 10:04:54;;;;;;;5.97;1.40;;;21.90;99.90;;;;;;4204291;28;20086;-88
2023/07/12 10:06:56;;;;;;;6.13;2.17;;;21.80;99.90;;;;;;4226905;28;20044;-88
2023/07/12 10:08:57;;;;;;;5.00;1.30;;;21.80;99.90;;;;;;4226073;28;20040;-87
2023/07/12 10:11:06;;;;;;;7.50;1.35;;;21.80;99.90;;;;;;4214345;28;20036;-88
2023/07/12 10:13:33;;;;;;;3.38;1.10;;;21.80;99.90;;;;;;4200991;28;20048;-88
2023/07/12 10:15:41;;;;;;;3.13;1.10;;;21.70;99.90;;;;;;4220107;28;20036;-88
2023/07/12 10:17:49;;;;;;;5.35;1.15;;;22.00;99.90;;;;;;4216062;28;20090;-88
2023/07/12 10:19:53;;;;;;;2.63;1.20;;;22.20;99.90;;;;;;4209153;28;20052;-87
2023/07/12 10:21:58;;;;;;;4.97;1.55;;;22.40;99.90;;;;;;4205503;28;20045;-88
2023/07/12 10:24:02;;;;;;;5.47;1.77;;;22.70;99.90;;;;;;4227833;28;20137;-87
2023/07/12 10:26:09;;;;;;;5.40;1.65;;;22.90;99.90;;;;;;4204054;28;20052;-88
2023/07/12 10:28:31;;;;;;;5.28;1.45;;;22.90;99.90;;;;;;4204304;28;20139;-87
2023/07/12 10:30:33;;;;;;;11.05;2.75;;;22.80;99.90;;;;;;4201202;28;20045;-89
2023/07/12 10:32:46;;;;;;;5.45;1.30;;;22.90;99.90;;;;;;4201738;28;20109;-89
2023/07/12 10:35:13;;;;;;;3.50;1.50;;;23.10;99.90;;;;;;4206987;28;20044;-90
2023/07/12 10:37:20;;;;;;;2.15;0.95;;;23.50;99.90;;;;;;4212270;28;20051;-89
2023/07/12 10:39:24;;;;;;;2.83;1.02;;;23.90;99.90;;;;;;4209120;28;20578;-89
2023/07/12 10:41:50;;;;;;;2.80;0.90;;;24.00;99.90;;;;;;4213083;28;20045;-89
2023/07/12 10:44:08;;;;;;;4.40;1.63;;;23.90;99.90;;;;;;4209880;28;20041;-88
2023/07/12 10:46:20;;;;;;;3.67;1.23;;;23.90;99.90;;;;;;4222988;28;20048;-88
2023/07/12 10:48:27;;;;;;;3.90;1.63;;;24.20;99.90;;;;;;4206842;28;20657;-87